createdAt,value
2022-10-10T00:02:13.170Z,100.00
2022-10-10T00:05:29.431Z,100.00
2022-10-10T00:08:46.376Z,100.00
2022-10-10T00:12:02.626Z,100.00
2022-10-10T00:15:22.465Z,100.00
2022-10-10T00:18:39.544Z,100.00
2022-10-10T00:21:55.634Z,100.00
2022-10-10T00:25:13.423Z,100.00
2022-10-10T00:28:30.621Z,100.00
2022-10-10T00:31:46.889Z,100.00
2022-10-10T00:35:03.311Z,100.00
2022-10-10T00:38:20.575Z,100.00
2022-10-10T00:41:36.714Z,100.00
2022-10-10T00:45:09.420Z,100.00
2022-10-10T00:48:29.008Z,100.00
2022-10-10T00:51:45.228Z,100.00
2022-10-10T00:55:01.327Z,100.00
2022-10-10T00:58:20.348Z,100.00
2022-10-10T01:01:37.296Z,100.00
2022-10-10T01:04:54.769Z,100.00
2022-10-10T01:08:13.639Z,100.00
2022-10-10T01:11:47.063Z,100.00
2022-10-10T01:15:09.200Z,100.00
2022-10-10T01:18:32.947Z,100.00
2022-10-10T01:21:55.593Z,100.00
2022-10-10T01:25:21.475Z,100.00
2022-10-10T01:28:47.749Z,100.00
2022-10-10T01:32:09.215Z,100.00
2022-10-10T01:35:48.206Z,100.00
2022-10-10T01:39:08.833Z,100.00
2022-10-10T01:42:30.572Z,100.00
2022-10-10T01:45:51.831Z,100.00
2022-10-10T01:49:08.890Z,100.00
2022-10-10T01:52:35.672Z,100.00
2022-10-10T01:56:03.843Z,100.00
2022-10-10T01:59:34.323Z,100.00
2022-10-10T02:05:58.885Z,100.00
2022-10-10T02:09:19.562Z,100.00
2022-10-10T02:12:39.798Z,100.00
2022-10-10T02:16:00.470Z,100.00
2022-10-10T02:19:20.707Z,100.00
2022-10-10T02:22:38.059Z,100.00
2022-10-10T02:25:57.966Z,100.00
2022-10-10T02:29:18.179Z,100.00
2022-10-10T02:32:40.445Z,100.00
2022-10-10T02:35:58.812Z,100.00
2022-10-10T02:39:17.433Z,100.00
2022-10-10T02:42:35.269Z,100.00
2022-10-10T02:45:51.748Z,100.00
2022-10-10T02:49:10.498Z,100.00
2022-10-10T02:52:27.807Z,100.00
2022-10-10T02:55:43.789Z,100.00
2022-10-10T02:59:01.240Z,100.00
2022-10-10T03:02:17.486Z,100.00
2022-10-10T03:05:34.607Z,100.00
2022-10-10T03:08:50.621Z,100.00
2022-10-10T03:12:06.646Z,100.00
2022-10-10T03:15:22.806Z,100.00
2022-10-10T03:18:38.875Z,100.00
2022-10-10T03:21:54.865Z,100.00
2022-10-10T03:25:12.419Z,100.00
2022-10-10T03:28:28.543Z,100.00
2022-10-10T03:34:47.811Z,100.00
2022-10-10T03:38:03.997Z,100.00
2022-10-10T03:41:20.419Z,100.00
2022-10-10T03:44:37.422Z,100.00
2022-10-10T03:50:56.545Z,100.00
2022-10-10T03:54:12.825Z,100.00
2022-10-10T03:57:28.819Z,100.00
2022-10-10T04:00:45.504Z,100.00
2022-10-10T04:04:01.587Z,100.00
2022-10-10T04:07:17.885Z,100.00
2022-10-10T04:10:34.536Z,100.00
2022-10-10T04:13:50.653Z,100.00
2022-10-10T04:20:09.996Z,100.00
2022-10-10T04:23:26.937Z,100.00
2022-10-10T04:26:42.908Z,100.00
2022-10-10T04:29:58.919Z,100.00
2022-10-10T04:33:16.958Z,100.00
2022-10-10T04:36:32.979Z,100.00
2022-10-10T04:39:48.945Z,100.00
2022-10-10T04:43:05.201Z,100.00
2022-10-10T04:49:24.339Z,100.00
2022-10-10T04:52:40.381Z,100.00
2022-10-10T04:55:56.667Z,100.00
2022-10-10T04:59:12.741Z,100.00
2022-10-10T05:05:31.936Z,100.00
2022-10-10T05:08:49.057Z,100.00
2022-10-10T05:12:05.223Z,100.00
2022-10-10T05:15:22.110Z,100.00
2022-10-10T05:21:41.255Z,100.00
2022-10-10T05:24:57.507Z,100.00
2022-10-10T05:28:13.705Z,100.00
2022-10-10T05:31:29.894Z,100.00
2022-10-10T05:34:45.930Z,100.00
2022-10-10T05:38:02.007Z,100.00
2022-10-10T05:41:18.693Z,100.00
2022-10-10T05:44:35.622Z,100.00
2022-10-10T05:51:00.456Z,100.00
2022-10-10T05:54:16.844Z,100.00
2022-10-10T05:57:32.994Z,100.00
2022-10-10T06:00:50.161Z,100.00
2022-10-10T06:04:06.421Z,100.00
2022-10-10T06:07:22.481Z,100.00
2022-10-10T06:10:41.082Z,100.00
2022-10-10T06:13:58.122Z,100.00
2022-10-10T06:17:17.113Z,100.00
2022-10-10T06:20:33.438Z,100.00
2022-10-10T06:23:50.131Z,100.00
2022-10-10T06:27:06.335Z,100.00
2022-10-10T06:30:23.179Z,100.00
2022-10-10T06:33:41.721Z,100.00
2022-10-10T06:36:58.906Z,100.00
2022-10-10T06:40:16.649Z,100.00
2022-10-10T06:43:33.399Z,100.00
2022-10-10T06:49:52.637Z,100.00
2022-10-10T06:53:09.132Z,100.00
2022-10-10T06:56:27.746Z,100.00
2022-10-10T06:59:44.385Z,100.00
2022-10-10T07:06:07.829Z,95.59
2022-10-10T07:09:24.141Z,93.65
2022-10-10T07:12:44.508Z,94.33
2022-10-10T07:20:18.620Z,87.10
2022-10-10T07:23:37.331Z,85.62
2022-10-10T07:27:02.339Z,82.13
2022-10-10T07:30:14.977Z,78.96
2022-10-10T07:36:34.637Z,87.82
2022-10-10T07:39:50.963Z,88.22
2022-10-10T07:43:07.262Z,92.33
2022-10-10T07:46:27.473Z,95.52
2022-10-10T07:49:43.623Z,95.51
2022-10-10T07:52:59.698Z,100.00
2022-10-10T07:56:17.252Z,100.00
2022-10-10T07:59:34.258Z,100.00
2022-10-10T08:02:51.637Z,100.00
2022-10-10T08:06:10.199Z,100.00
2022-10-10T08:09:26.224Z,100.00
2022-10-10T08:12:42.443Z,100.00
2022-10-10T08:16:02.959Z,100.00
2022-10-10T08:19:36.129Z,100.00
2022-10-10T08:22:53.311Z,100.00
2022-10-10T08:26:12.521Z,100.00
2022-10-10T08:29:28.979Z,100.00
2022-10-10T08:32:45.681Z,100.00
2022-10-10T08:36:02.265Z,100.00
2022-10-10T08:39:18.613Z,100.00
2022-10-10T08:42:46.970Z,100.00
2022-10-10T08:46:02.077Z,100.00
2022-10-10T08:49:26.825Z,100.00
2022-10-10T08:52:58.579Z,100.00
2022-10-10T08:56:22.477Z,100.00
2022-10-10T08:59:44.329Z,100.00
2022-10-10T09:03:03.495Z,100.00
2022-10-10T09:06:34.635Z,100.00
2022-10-10T09:09:56.701Z,100.00
2022-10-10T09:13:20.574Z,100.00
2022-10-10T09:16:44.722Z,99.88
2022-10-10T09:20:12.034Z,98.22
2022-10-10T09:23:33.235Z,98.83
2022-10-10T09:26:53.640Z,95.83
2022-10-10T09:30:15.893Z,95.49
2022-10-10T09:33:38.792Z,95.58
2022-10-10T09:36:59.477Z,93.70
2022-10-10T09:40:23.193Z,94.69
2022-10-10T09:43:42.845Z,90.31
2022-10-10T09:47:00.633Z,88.24
2022-10-10T09:50:21.389Z,89.83
2022-10-10T09:53:38.371Z,83.67
2022-10-10T09:56:59.461Z,82.60
2022-10-10T10:00:37.851Z,80.58
2022-10-10T10:04:26.912Z,78.09
2022-10-10T10:07:37.143Z,74.49
2022-10-10T10:10:53.332Z,75.90
2022-10-10T10:14:10.521Z,74.06
2022-10-10T10:17:29.665Z,73.68
2022-10-10T10:20:48.423Z,73.40
2022-10-10T10:24:07.978Z,74.13
2022-10-10T10:27:28.305Z,72.94
2022-10-10T10:30:45.409Z,70.37
2022-10-10T10:34:11.193Z,69.05
2022-10-10T10:37:32.839Z,70.64
2022-10-10T10:40:53.678Z,69.75
2022-10-10T10:44:26.859Z,69.92
2022-10-10T10:47:53.232Z,68.36
2022-10-10T10:51:17.431Z,67.48
2022-10-10T10:54:47.500Z,68.43
2022-10-10T11:05:45.398Z,66.41
2022-10-10T11:09:44.854Z,68.36
2022-10-10T11:12:59.205Z,67.88
2022-10-10T11:16:47.466Z,68.01
2022-10-10T11:19:44.940Z,68.03
2022-10-10T11:23:09.027Z,70.58
2022-10-10T11:26:29.950Z,70.41
2022-10-10T11:29:55.404Z,70.26
2022-10-10T11:33:18.901Z,70.79
2022-10-10T11:36:44.675Z,70.52
2022-10-10T11:40:05.482Z,70.01
2022-10-10T11:43:30.769Z,72.33
2022-10-10T11:46:51.299Z,70.55
2022-10-10T11:50:11.852Z,70.58
2022-10-10T11:53:34.979Z,70.67
2022-10-10T11:56:54.364Z,70.50
2022-10-10T12:00:16.031Z,70.45
2022-10-10T12:03:34.119Z,71.13
2022-10-10T12:06:58.432Z,71.44
2022-10-10T12:10:19.650Z,71.51
2022-10-10T12:13:45.066Z,70.87
2022-10-10T12:21:22.097Z,71.05
2022-10-10T12:24:43.113Z,71.46
2022-10-10T12:28:29.155Z,70.49
2022-10-10T12:31:48.240Z,71.98
2022-10-10T12:35:17.388Z,71.94
2022-10-10T12:38:32.810Z,70.73
2022-10-10T12:42:04.593Z,70.49
2022-10-10T12:46:02.596Z,70.23
2022-10-10T12:49:29.182Z,70.31
2022-10-10T12:52:52.791Z,70.15
2022-10-10T12:56:11.736Z,71.04
2022-10-10T12:59:31.652Z,68.64
2022-10-10T13:02:51.305Z,69.10
2022-10-10T13:06:13.587Z,70.23
2022-10-10T13:09:35.101Z,70.52
2022-10-10T13:12:50.541Z,70.36
2022-10-10T13:16:13.637Z,71.05
2022-10-10T13:19:32.957Z,70.97
2022-10-10T13:22:49.102Z,71.69
2022-10-10T13:26:05.393Z,71.64
2022-10-10T13:29:35.666Z,71.26
2022-10-10T13:35:56.935Z,70.33
2022-10-10T13:39:16.046Z,70.88
2022-10-10T13:42:42.514Z,71.22
2022-10-10T13:46:03.197Z,70.39
2022-10-10T13:52:32.056Z,70.84
2022-10-10T13:55:48.965Z,70.09
2022-10-10T13:59:12.317Z,70.89
2022-10-10T14:03:22.880Z,70.16
2022-10-10T14:06:40.050Z,70.33
2022-10-10T14:10:02.895Z,70.18
2022-10-10T14:13:26.398Z,68.93
2022-10-10T14:16:42.792Z,71.05
2022-10-10T14:20:00.311Z,69.73
2022-10-10T14:23:16.637Z,69.00
2022-10-10T14:26:32.983Z,68.72
2022-10-10T14:29:49.520Z,68.97
2022-10-10T14:36:11.027Z,68.65
2022-10-10T14:39:28.239Z,69.12
2022-10-10T14:42:44.595Z,69.84
2022-10-10T14:46:06.215Z,70.35
2022-10-10T14:52:25.779Z,71.02
2022-10-10T14:55:46.716Z,71.94
2022-10-10T14:59:03.903Z,72.10
2022-10-10T15:02:20.968Z,72.75
2022-10-10T15:08:44.738Z,73.79
2022-10-10T15:12:05.389Z,74.32
2022-10-10T15:15:32.862Z,74.71
2022-10-10T15:19:01.397Z,74.95
2022-10-10T15:26:13.765Z,75.75
2022-10-10T15:29:30.086Z,76.62
2022-10-10T15:32:49.181Z,85.79
2022-10-10T15:36:11.508Z,91.50
2022-10-10T15:39:29.487Z,96.28
2022-10-10T15:42:46.399Z,98.03
2022-10-10T15:46:07.010Z,98.44
2022-10-10T15:49:23.956Z,100.00
2022-10-10T15:52:40.515Z,100.00
2022-10-10T15:55:57.940Z,100.00
2022-10-10T15:59:18.603Z,100.00
2022-10-10T16:02:36.992Z,100.00
2022-10-10T16:05:51.254Z,100.00
2022-10-10T16:09:27.511Z,100.00
2022-10-10T16:12:26.906Z,100.00
2022-10-10T16:15:43.445Z,100.00
2022-10-10T16:22:02.815Z,100.00
2022-10-10T16:25:23.307Z,100.00
2022-10-10T16:28:38.360Z,100.00
2022-10-10T16:31:54.812Z,100.00
2022-10-10T16:35:11.844Z,100.00
2022-10-10T16:38:31.219Z,100.00
2022-10-10T16:41:49.219Z,100.00
2022-10-10T16:45:05.727Z,100.00
2022-10-10T16:49:30.203Z,100.00
2022-10-10T16:52:48.584Z,100.00
2022-10-10T16:56:07.831Z,100.00
2022-10-10T16:59:21.753Z,100.00
2022-10-10T17:02:41.460Z,100.00
2022-10-10T17:06:00.024Z,100.00
2022-10-10T17:09:18.162Z,100.00
2022-10-10T17:12:34.736Z,100.00
2022-10-10T17:15:53.447Z,100.00
2022-10-10T17:25:17.914Z,100.00
2022-10-10T17:28:34.389Z,100.00
2022-10-10T17:31:51.219Z,100.00
2022-10-10T17:35:09.271Z,100.00
2022-10-10T17:38:39.537Z,100.00
2022-10-10T17:41:46.665Z,100.00
2022-10-10T17:45:03.628Z,100.00
2022-10-10T17:48:21.400Z,100.00
2022-10-10T17:51:37.919Z,100.00
2022-10-10T17:54:54.769Z,100.00
2022-10-10T17:58:11.181Z,100.00
2022-10-10T18:01:31.353Z,100.00
2022-10-10T18:07:51.029Z,100.00
2022-10-10T18:11:12.945Z,100.00
2022-10-10T18:14:28.564Z,100.00
2022-10-10T18:17:44.755Z,100.00
2022-10-10T18:21:01.216Z,100.00
2022-10-10T18:24:20.042Z,100.00
2022-10-10T18:27:37.784Z,100.00
2022-10-10T18:30:54.575Z,100.00
2022-10-10T18:34:13.894Z,100.00
2022-10-10T18:37:32.529Z,100.00
2022-10-10T18:40:49.016Z,100.00
2022-10-10T18:44:06.206Z,100.00
2022-10-10T18:47:23.461Z,100.00
2022-10-10T18:53:45.766Z,100.00
2022-10-10T18:57:06.109Z,100.00
2022-10-10T19:00:28.606Z,100.00
2022-10-10T19:03:48.410Z,100.00
2022-10-10T19:10:44.647Z,100.00
2022-10-10T19:14:01.944Z,100.00
2022-10-10T19:17:21.743Z,100.00
2022-10-10T19:23:43.855Z,100.00
2022-10-10T19:27:04.244Z,100.00
2022-10-10T19:30:27.301Z,100.00
2022-10-10T19:33:49.798Z,100.00
2022-10-10T19:37:08.708Z,100.00
2022-10-10T19:40:25.459Z,100.00
2022-10-10T19:43:43.303Z,100.00
2022-10-10T19:47:03.609Z,100.00
2022-10-10T19:50:20.993Z,100.00
2022-10-10T19:53:38.881Z,100.00
2022-10-10T19:57:01.213Z,100.00
2022-10-10T20:00:22.368Z,100.00
2022-10-10T20:03:40.714Z,100.00
2022-10-10T20:06:57.881Z,100.00
2022-10-10T20:10:17.282Z,100.00
2022-10-10T20:13:33.349Z,100.00
2022-10-10T20:16:49.639Z,100.00
2022-10-10T20:20:06.035Z,100.00
2022-10-10T20:23:24.275Z,100.00
2022-10-10T20:26:41.782Z,100.00
2022-10-10T20:30:05.758Z,100.00
2022-10-10T20:33:25.750Z,100.00
2022-10-10T20:36:43.696Z,100.00
2022-10-10T20:40:00.688Z,100.00
2022-10-10T20:43:18.325Z,100.00
2022-10-10T20:46:40.518Z,100.00
2022-10-10T20:50:00.507Z,100.00
2022-10-10T20:53:18.249Z,100.00
2022-10-10T20:56:41.419Z,100.00
2022-10-10T20:59:57.753Z,100.00
2022-10-10T21:03:14.244Z,100.00
2022-10-10T21:06:40.222Z,100.00
2022-10-10T21:09:58.951Z,100.00
2022-10-10T21:13:15.464Z,100.00
2022-10-10T21:16:34.731Z,100.00
2022-10-10T21:22:54.647Z,100.00
2022-10-10T21:26:29.575Z,100.00
2022-10-10T21:29:47.017Z,100.00
2022-10-10T21:33:03.005Z,100.00
2022-10-10T21:39:23.353Z,100.00
2022-10-10T21:42:39.579Z,100.00
2022-10-10T21:45:55.907Z,100.00
2022-10-10T21:49:15.506Z,100.00
2022-10-10T21:52:32.145Z,100.00
2022-10-10T21:55:49.089Z,100.00
2022-10-10T21:59:06.132Z,100.00
2022-10-10T22:02:25.750Z,100.00
2022-10-10T22:05:45.438Z,100.00
2022-10-10T22:09:04.330Z,100.00
2022-10-10T22:12:20.931Z,100.00
2022-10-10T22:15:37.951Z,100.00
2022-10-10T22:18:55.776Z,100.00
2022-10-10T22:22:11.815Z,100.00
2022-10-10T22:25:28.825Z,100.00
2022-10-10T22:28:44.877Z,100.00
2022-10-10T22:32:01.759Z,100.00
2022-10-10T22:35:18.830Z,100.00
2022-10-10T22:38:35.235Z,100.00
2022-10-10T22:41:52.441Z,100.00
2022-10-10T22:45:08.649Z,100.00
2022-10-10T22:48:24.718Z,100.00
2022-10-10T22:51:42.989Z,100.00
2022-10-10T22:55:00.638Z,100.00
2022-10-10T22:58:16.799Z,100.00
2022-10-10T23:01:34.218Z,100.00
2022-10-10T23:04:50.399Z,100.00
2022-10-10T23:08:06.510Z,100.00
2022-10-10T23:11:22.736Z,100.00
2022-10-10T23:14:39.130Z,100.00
2022-10-10T23:17:55.136Z,100.00
2022-10-10T23:24:15.740Z,100.00
2022-10-10T23:27:31.925Z,100.00
2022-10-10T23:30:51.611Z,100.00
2022-10-10T23:34:10.875Z,100.00
2022-10-10T23:40:32.346Z,100.00
2022-10-10T23:43:49.088Z,100.00
2022-10-10T23:47:05.062Z,100.00
2022-10-10T23:50:21.581Z,100.00
2022-10-10T23:53:37.647Z,100.00
2022-10-10T23:56:53.875Z,100.00
